Limavady, United Kingdom
Current Conditions -  °F | °C
As of 8:50 AM on Friday 24 Oct 2014 (Local Time) from EGAE Reporting Station
Few Clouds Few Clouds  
Wind Chill: 10°   Ceiling: Unl
Heat Index: 10°   Visibility: 6mi
Dew Point:   Wind: 17mph
Humidity: 76%   Direction: 200°SSW
Pressure: 29.74"   Gusts: NA
Location:  55.05°N, 6.95°W
Report Text: EGAE 240750Z 20015KT 9999 FEW020 10/06 Q1007
Loading
Personal Weather Stations






























Interactive Weather Map
Tropical Storm Tracking
New forecast layout! Learn more

10-Day Weather Forecast

Advertisements
Track Severe Weather on mobile